Time;durP1;ratioP1;P1;durP2;ratioP2;P2;SDS_P1;SDS_P2;PMS_P1;PMS_P2;Temp;Humidity;BMP_temperature;BMP_pressure;BME280_temperature;BME280_humidity;BME280_pressure;Samples;Min_cycle;Max_cycle;Signal;HPM_P1;HPM_P2
2023/03/09 06:53:33;;;;;;;10.32;6.82;;;;;;;;;;10543209;27;20788;-80
2023/03/09 06:58:34;;;;;;;10.75;7.22;;;;;;;;;;10541375;28;20031;-80
2023/03/09 07:03:35;;;;;;;8.63;5.95;;;;;;;;;;10523233;28;20119;-80
2023/03/09 07:08:37;;;;;;;12.52;9.27;;;;;;;;;;10541447;28;20028;-80
2023/03/09 07:13:38;;;;;;;7.75;6.15;;;;;;;;;;10523788;28;20119;-80
2023/03/09 07:18:40;;;;;;;7.85;6.43;;;;;;;;;;10523510;28;20044;-81
2023/03/09 07:23:41;;;;;;;7.35;6.13;;;;;;;;;;10521700;28;20028;-79
2023/03/09 07:28:42;;;;;;;10.27;8.35;;;;;;;;;;10521993;28;20037;-79
2023/03/09 07:33:43;;;;;;;23.52;17.90;;;;;;;;;;10520927;28;20052;-79
2023/03/09 07:38:44;;;;;;;10.15;8.15;;;;;;;;;;10521363;28;20031;-79
2023/03/09 07:43:45;;;;;;;;;;;;;;;;;;10521009;28;20029;-81
2023/03/09 07:48:47;;;;;;;7.68;6.05;;;;;;;;;;10523670;28;19908;-79
2023/03/09 07:53:48;;;;;;;10.85;8.48;;;;;;;;;;10529210;28;20031;-78
2023/03/09 07:58:49;;;;;;;;;;;;;;;;;;10557461;28;20017;-79
2023/03/09 08:03:50;;;;;;;8.63;6.82;;;;;;;;;;10539631;28;19967;-79
2023/03/09 08:08:51;;;;;;;;;;;;;;;;;;10536926;28;20028;-78
2023/03/09 08:13:52;;;;;;;18.30;12.18;;;;;;;;;;10499122;28;19911;-80
2023/03/09 08:18:54;;;;;;;14.25;10.95;;;;;;;;;;10489758;28;20119;-80
2023/03/09 08:23:55;;;;;;;15.13;11.60;;;;;;;;;;10494746;28;20059;-80
2023/03/09 08:28:58;;;;;;;17.05;12.68;;;;;;;;;;10492021;28;20069;-81
2023/03/09 08:33:59;;;;;;;13.00;10.02;;;;;;;;;;10493663;28;20052;-80
2023/03/09 08:39:00;;;;;;;14.07;11.38;;;;;;;;;;10488153;28;20127;-80
2023/03/09 08:44:01;;;;;;;15.50;11.85;;;;;;;;;;10486960;28;20389;-81
2023/03/09 08:49:02;;;;;;;;;;;;;;;;;;10487285;28;20037;-80
2023/03/09 08:54:03;;;;;;;16.48;12.13;;;;;;;;;;10487978;28;19904;-81
2023/03/09 08:59:04;;;;;;;;;;;;;;;;;;10507623;28;20032;-80
2023/03/09 09:04:05;;;;;;;16.90;12.60;;;;;;;;;;10488302;28;20397;-80
2023/03/09 09:09:09;;;;;;;15.45;12.07;;;;;;;;;;10501584;28;20052;-79
2023/03/09 09:14:10;;;;;;;21.52;14.50;;;;;;;;;;10510263;28;20101;-80
2023/03/09 09:19:11;;;;;;;22.10;15.00;;;;;;;;;;10486079;28;20531;-80
2023/03/09 09:24:12;;;;;;;21.73;15.63;;;;;;;;;;10486874;28;20043;-80
2023/03/09 09:29:13;;;;;;;19.92;14.73;;;;;;;;;;10488249;28;20021;-79
2023/03/09 09:34:17;;;;;;;15.52;11.80;;;;;;;;;;10506262;28;20024;-79
2023/03/09 09:39:19;;;;;;;14.52;10.88;;;;;;;;;;10486263;28;20060;-80
2023/03/09 09:44:29;;;;;;;17.52;13.88;;;;;;;;;;10503130;28;20035;-80
2023/03/09 09:49:31;;;;;;;14.50;10.70;;;;;;;;;;10484417;28;20040;-80
2023/03/09 09:54:51;;;;;;;15.98;11.88;;;;;;;;;;10503759;28;20489;-80
2023/03/09 09:59:58;;;;;;;15.32;11.73;;;;;;;;;;10484650;28;20062;-80
2023/03/09 10:05:05;;;;;;;16.35;11.93;;;;;;;;;;10484847;28;20494;-81
2023/03/09 10:10:11;;;;;;;13.75;10.13;;;;;;;;;;10510941;28;20154;-81
2023/03/09 10:15:12;;;;;;;16.35;11.70;;;;;;;;;;10491041;28;20028;-81
2023/03/09 10:20:13;;;;;;;;;;;;;;;;;;10508887;28;20398;-81
2023/03/09 10:25:14;;;;;;;;;;;;;;;;;;10490858;28;19905;-81
2023/03/09 10:30:18;;;;;;;18.00;12.27;;;;;;;;;;10508320;28;19910;-81
2023/03/09 10:35:36;;;;;;;13.65;9.90;;;;;;;;;;10489033;28;20033;-80
2023/03/09 10:40:42;;;;;;;16.80;11.07;;;;;;;;;;10487416;28;20028;-80
2023/03/09 10:45:43;;;;;;;15.10;10.48;;;;;;;;;;10489912;28;20047;-80
2023/03/09 10:50:44;;;;;;;;;;;;;;;;;;10487773;28;20040;-80
2023/03/09 10:55:46;;;;;;;15.75;9.65;;;;;;;;;;10506713;28;19904;-80
2023/03/09 11:00:57;;;;;;;14.25;9.85;;;;;;;;;;10488064;28;20032;-80
2023/03/09 11:06:13;;;;;;;16.93;11.57;;;;;;;;;;10506788;28;20066;-81
2023/03/09 11:11:20;;;;;;;18.30;12.13;;;;;;;;;;10488641;28;20119;-81
2023/03/09 11:16:23;;;;;;;16.80;11.45;;;;;;;;;;10506272;28;20074;-80
2023/03/09 11:21:24;;;;;;;15.80;11.60;;;;;;;;;;10505647;28;20050;-80
2023/03/09 11:26:30;;;;;;;16.42;11.20;;;;;;;;;;10506468;28;20035;-80
2023/03/09 11:31:36;;;;;;;17.58;11.57;;;;;;;;;;10491154;28;20039;-80
2023/03/09 11:36:51;;;;;;;33.38;23.30;;;;;;;;;;10491011;28;20029;-81
2023/03/09 11:41:53;;;;;;;19.30;12.93;;;;;;;;;;10496983;28;20123;-81
2023/03/09 11:46:57;;;;;;;16.23;12.13;;;;;;;;;;10496601;28;20555;-80
2023/03/09 11:51:59;;;;;;;17.85;12.90;;;;;;;;;;10496534;28;20052;-81
2023/03/09 11:57:07;;;;;;;17.30;11.43;;;;;;;;;;10495676;28;20036;-81
2023/03/09 12:02:14;;;;;;;30.35;20.52;;;;;;;;;;10496250;28;20032;-81
2023/03/09 12:07:20;;;;;;;23.02;15.02;;;;;;;;;;10496031;28;20453;-80
2023/03/09 12:12:30;;;;;;;19.98;15.32;;;;;;;;;;10515912;28;20029;-80
2023/03/09 12:17:36;;;;;;;19.17;13.35;;;;;;;;;;10504340;28;20095;-82
2023/03/09 12:22:39;;;;;;;32.00;22.60;;;;;;;;;;10495934;28;20040;-81
2023/03/09 12:27:47;;;;;;;16.60;13.00;;;;;;;;;;10495804;28;20028;-81
2023/03/09 12:32:48;;;;;;;28.40;20.67;;;;;;;;;;10496050;28;20028;-81
2023/03/09 12:37:49;;;;;;;;;;;;;;;;;;10492756;28;20082;-80
2023/03/09 12:42:52;;;;;;;18.33;12.57;;;;;;;;;;10508736;28;19919;-81
2023/03/09 12:48:19;;;;;;;49.40;32.85;;;;;;;;;;10508265;28;20535;-81
2023/03/09 12:53:31;;;;;;;33.45;20.40;;;;;;;;;;10453504;28;20044;-80
2023/03/09 12:58:35;;;;;;;39.97;24.08;;;;;;;;;;10489610;28;20102;-81
2023/03/09 13:03:50;;;;;;;21.80;14.98;;;;;;;;;;10489919;28;20029;-80
2023/03/09 13:08:54;;;;;;;26.27;17.30;;;;;;;;;;10489809;28;20123;-80
2023/03/09 13:13:56;;;;;;;22.33;14.95;;;;;;;;;;10489625;28;20439;-80
2023/03/09 13:19:16;;;;;;;21.98;15.75;;;;;;;;;;10488019;28;20027;-80
2023/03/09 13:24:19;;;;;;;19.50;13.17;;;;;;;;;;10489184;28;20021;-79
2023/03/09 13:29:24;;;;;;;22.13;15.18;;;;;;;;;;10511426;28;20312;-81
2023/03/09 13:34:27;;;;;;;18.80;14.70;;;;;;;;;;10508342;28;20024;-80
2023/03/09 13:39:28;;;;;;;23.73;16.02;;;;;;;;;;10503534;28;20036;-80
2023/03/09 13:44:29;;;;;;;;;;;;;;;;;;10487481;28;20029;-80
2023/03/09 13:49:30;;;;;;;20.67;13.82;;;;;;;;;;10488549;28;19974;-83
2023/03/09 13:54:33;;;;;;;22.63;16.35;;;;;;;;;;10487123;28;20033;-82
2023/03/09 13:59:42;;;;;;;28.05;19.38;;;;;;;;;;10486414;28;20028;-83
2023/03/09 14:04:45;;;;;;;48.70;34.05;;;;;;;;;;10504588;28;20055;-81
2023/03/09 14:09:50;;;;;;;21.40;15.18;;;;;;;;;;10487052;28;20409;-82
2023/03/09 14:14:51;;;;;;;37.65;24.33;;;;;;;;;;10486962;28;20024;-82
2023/03/09 14:19:52;;;;;;;;;;;;;;;;;;10487261;28;20024;-82
2023/03/09 14:24:53;;;;;;;35.13;24.27;;;;;;;;;;10504174;28;19912;-82
2023/03/09 14:29:56;;;;;;;19.25;13.80;;;;;;;;;;10485823;28;20509;-81
2023/03/09 14:34:58;;;;;;;21.98;15.40;;;;;;;;;;10510344;28;20048;-82
2023/03/09 14:40:00;;;;;;;20.38;13.98;;;;;;;;;;10514123;28;20029;-81
2023/03/09 14:45:13;;;;;;;20.48;13.88;;;;;;;;;;10534428;28;20046;-80
2023/03/09 14:50:15;;;;;;;20.67;13.80;;;;;;;;;;10485598;28;20036;-82
2023/03/09 14:55:21;;;;;;;17.70;13.27;;;;;;;;;;10472717;28;20498;-84
2023/03/09 15:00:24;;;;;;;18.20;12.93;;;;;;;;;;10465374;28;20116;-83
2023/03/09 15:05:25;;;;;;;17.50;13.20;;;;;;;;;;10447932;28;20111;-83
2023/03/09 15:10:27;;;;;;;18.80;12.82;;;;;;;;;;10448900;28;20021;-83
2023/03/09 15:15:28;;;;;;;17.70;12.90;;;;;;;;;;10456574;28;20471;-83
2023/03/09 15:20:29;;;;;;;;;;;;;;;;;;10475681;28;20025;-83
2023/03/09 15:25:33;;;;;;;17.38;11.77;;;;;;;;;;10457161;28;19911;-83
2023/03/09 15:30:35;;;;;;;17.88;13.48;;;;;;;;;;10456582;28;20037;-83
2023/03/09 15:35:36;;;;;;;17.50;13.10;;;;;;;;;;10477870;28;20372;-83
2023/03/09 15:40:40;;;;;;;19.10;14.27;;;;;;;;;;10460432;28;20044;-83
2023/03/09 15:45:42;;;;;;;21.65;15.55;;;;;;;;;;10461317;28;20036;-82
2023/03/09 15:50:48;;;;;;;14.68;10.73;;;;;;;;;;10475623;28;20356;-82
2023/03/09 15:56:00;;;;;;;15.88;11.57;;;;;;;;;;10467798;28;20093;-82
2023/03/09 16:01:03;;;;;;;17.98;12.98;;;;;;;;;;10461258;28;20060;-82
2023/03/09 16:06:09;;;;;;;16.58;12.52;;;;;;;;;;10455864;28;20211;-82
2023/03/09 16:11:10;;;;;;;14.57;10.73;;;;;;;;;;10455345;28;20036;-82
2023/03/09 16:16:11;;;;;;;14.65;10.88;;;;;;;;;;10472374;28;20031;-82
2023/03/09 16:21:12;;;;;;;;;;;;;;;;;;10456592;28;20085;-82
2023/03/09 16:26:17;;;;;;;15.30;11.70;;;;;;;;;;10455132;28;19926;-82
2023/03/09 16:31:19;;;;;;;12.23;10.05;;;;;;;;;;10478845;28;20379;-82
2023/03/09 16:36:21;;;;;;;15.00;11.02;;;;;;;;;;10463381;28;20384;-82
2023/03/09 16:41:22;;;;;;;18.30;12.98;;;;;;;;;;10461183;28;20025;-84
2023/03/09 16:46:24;;;;;;;20.42;14.80;;;;;;;;;;10460754;28;20116;-82
2023/03/09 16:51:25;;;;;;;17.83;12.73;;;;;;;;;;10463532;28;20424;-83
2023/03/09 16:56:26;;;;;;;16.38;11.57;;;;;;;;;;10462798;28;20071;-82
2023/03/09 17:01:27;;;;;;;;;;;;;;;;;;10484349;28;20020;-83
2023/03/09 17:06:28;;;;;;;28.30;18.23;;;;;;;;;;10471325;28;19989;-82
2023/03/09 17:11:29;;;;;;;17.42;12.98;;;;;;;;;;10484505;28;20036;-82
2023/03/09 17:16:30;;;;;;;19.98;13.90;;;;;;;;;;10457405;28;20127;-82
2023/03/09 17:21:31;;;;;;;;;;;;;;;;;;10457841;28;20033;-82
2023/03/09 17:26:32;;;;;;;16.27;11.10;;;;;;;;;;10461920;28;20450;-81
2023/03/09 17:31:33;;;;;;;22.70;15.85;;;;;;;;;;10453542;28;20033;-80
2023/03/09 17:36:34;;;;;;;25.27;17.27;;;;;;;;;;10454495;28;20469;-79
2023/03/09 17:41:35;;;;;;;;;;;;;;;;;;10454184;28;20124;-79
2023/03/09 17:46:36;;;;;;;27.52;19.90;;;;;;;;;;10454582;28;19911;-80
2023/03/09 17:51:38;;;;;;;21.10;13.55;;;;;;;;;;10451308;28;20068;-80
2023/03/09 17:56:39;;;;;;;22.15;15.57;;;;;;;;;;10464597;28;20028;-79
2023/03/09 18:01:40;;;;;;;25.33;18.00;;;;;;;;;;10464641;28;20464;-79
2023/03/09 18:06:41;;;;;;;23.90;16.50;;;;;;;;;;10467360;28;20056;-79
2023/03/09 18:11:42;;;;;;;24.40;16.83;;;;;;;;;;10467265;28;20479;-79
2023/03/09 18:16:44;;;;;;;26.05;16.67;;;;;;;;;;10448582;28;20032;-80
2023/03/09 18:21:45;;;;;;;25.52;16.42;;;;;;;;;;10448656;28;20487;-80
2023/03/09 18:26:46;;;;;;;22.02;15.32;;;;;;;;;;10451030;28;20025;-81
2023/03/09 18:31:49;;;;;;;23.73;15.82;;;;;;;;;;10457183;28;20032;-80
2023/03/09 18:36:50;;;;;;;24.30;17.02;;;;;;;;;;10459038;23;20060;-83
2023/03/09 18:41:51;;;;;;;22.58;14.93;;;;;;;;;;10438896;28;20041;-84
2023/03/09 18:46:52;;;;;;;32.25;20.98;;;;;;;;;;10473107;28;20029;-84
2023/03/09 18:51:55;;;;;;;19.30;14.40;;;;;;;;;;10453446;28;20486;-84
2023/03/09 18:56:56;;;;;;;30.83;20.17;;;;;;;;;;10453034;28;20033;-84
2023/03/09 19:01:57;;;;;;;21.23;15.50;;;;;;;;;;10453115;28;20114;-84
2023/03/09 19:06:58;;;;;;;23.40;15.52;;;;;;;;;;10453304;28;20025;-84
2023/03/09 19:11:59;;;;;;;20.52;14.13;;;;;;;;;;10452295;28;20068;-84
2023/03/09 19:17:00;;;;;;;26.02;17.00;;;;;;;;;;10455301;28;20407;-83
2023/03/09 19:22:01;;;;;;;18.35;13.27;;;;;;;;;;10454934;28;20056;-84
2023/03/09 19:27:02;;;;;;;20.95;15.30;;;;;;;;;;10456848;28;20493;-84
2023/03/09 19:32:04;;;;;;;22.40;15.00;;;;;;;;;;10469793;28;20066;-84
2023/03/09 19:37:06;;;;;;;23.48;16.52;;;;;;;;;;10480526;28;20048;-84
2023/03/09 19:42:07;;;;;;;21.70;14.95;;;;;;;;;;10477672;28;20025;-84
2023/03/09 19:47:08;;;;;;;26.45;18.38;;;;;;;;;;10459851;28;20087;-84
2023/03/09 19:52:09;;;;;;;22.27;14.63;;;;;;;;;;10456963;28;20124;-85
2023/03/09 19:57:13;;;;;;;20.42;13.82;;;;;;;;;;10458528;28;20092;-84
2023/03/09 20:02:15;;;;;;;14.95;10.55;;;;;;;;;;10460154;28;20446;-84
2023/03/09 20:07:17;;;;;;;15.95;11.75;;;;;;;;;;10462190;28;20053;-84
2023/03/09 20:12:22;;;;;;;14.45;10.48;;;;;;;;;;10460912;28;20033;-84
2023/03/09 20:17:23;;;;;;;15.82;12.02;;;;;;;;;;10461861;28;20402;-85
